sensor_id;sensor_type;location;lat;lon;timestamp;temperature;humidity
68215;DHT22;55036;52.138;5.236;2023-04-30T00:00:51;9.80;72.90
68215;DHT22;55036;52.138;5.236;2023-04-30T00:03:18;9.80;72.90
68215;DHT22;55036;52.138;5.236;2023-04-30T00:05:44;9.70;72.90
68215;DHT22;55036;52.138;5.236;2023-04-30T00:08:15;9.80;73.00
68215;DHT22;55036;52.138;5.236;2023-04-30T00:10:42;9.70;72.80
68215;DHT22;55036;52.138;5.236;2023-04-30T00:13:08;9.60;72.50
68215;DHT22;55036;52.138;5.236;2023-04-30T00:45:38;9.20;74.50
68215;DHT22;55036;52.138;5.236;2023-04-30T00:48:05;9.10;74.30
68215;DHT22;55036;52.138;5.236;2023-04-30T00:50:35;9.10;74.50
68215;DHT22;55036;52.138;5.236;2023-04-30T00:53:02;9.10;74.90
68215;DHT22;55036;52.138;5.236;2023-04-30T00:55:28;9.20;74.90
68215;DHT22;55036;52.138;5.236;2023-04-30T00:57:56;9.20;74.90
68215;DHT22;55036;52.138;5.236;2023-04-30T01:00:22;9.20;74.70
68215;DHT22;55036;52.138;5.236;2023-04-30T01:02:50;9.10;74.50
68215;DHT22;55036;52.138;5.236;2023-04-30T01:05:17;9.10;74.80
68215;DHT22;55036;52.138;5.236;2023-04-30T01:07:44;9.10;74.90
68215;DHT22;55036;52.138;5.236;2023-04-30T01:10:13;9.10;75.00
68215;DHT22;55036;52.138;5.236;2023-04-30T01:12:52;9.10;75.10
68215;DHT22;55036;52.138;5.236;2023-04-30T01:15:26;9.00;75.10
68215;DHT22;55036;52.138;5.236;2023-04-30T01:20:23;8.90;75.50
68215;DHT22;55036;52.138;5.236;2023-04-30T01:23:02;8.90;75.30
68215;DHT22;55036;52.138;5.236;2023-04-30T01:26:14;8.90;75.50
68215;DHT22;55036;52.138;5.236;2023-04-30T01:28:41;8.90;75.60
68215;DHT22;55036;52.138;5.236;2023-04-30T01:31:13;8.90;75.60
68215;DHT22;55036;52.138;5.236;2023-04-30T01:33:41;8.80;75.50
68215;DHT22;55036;52.138;5.236;2023-04-30T01:47:17;8.60;75.70
68215;DHT22;55036;52.138;5.236;2023-04-30T01:50:07;8.60;75.80
68215;DHT22;55036;52.138;5.236;2023-04-30T01:52:52;8.60;75.60
68215;DHT22;55036;52.138;5.236;2023-04-30T01:55:42;8.50;75.80
68215;DHT22;55036;52.138;5.236;2023-04-30T01:58:11;8.50;76.00
68215;DHT22;55036;52.138;5.236;2023-04-30T02:00:38;8.50;75.90
68215;DHT22;55036;52.138;5.236;2023-04-30T02:03:05;8.40;76.10
68215;DHT22;55036;52.138;5.236;2023-04-30T02:05:33;8.40;75.70
68215;DHT22;55036;52.138;5.236;2023-04-30T02:07:59;8.30;76.00
68215;DHT22;55036;52.138;5.236;2023-04-30T02:10:26;8.20;76.20
68215;DHT22;55036;52.138;5.236;2023-04-30T02:12:54;8.20;76.00
68215;DHT22;55036;52.138;5.236;2023-04-30T02:15:21;8.20;76.20
68215;DHT22;55036;52.138;5.236;2023-04-30T02:17:48;8.20;76.10
68215;DHT22;55036;52.138;5.236;2023-04-30T02:20:15;8.20;76.20
68215;DHT22;55036;52.138;5.236;2023-04-30T02:22:42;8.20;77.30
68215;DHT22;55036;52.138;5.236;2023-04-30T02:25:09;8.20;76.20
68215;DHT22;55036;52.138;5.236;2023-04-30T02:27:37;8.10;76.20
68215;DHT22;55036;52.138;5.236;2023-04-30T02:30:04;8.10;76.30
68215;DHT22;55036;52.138;5.236;2023-04-30T02:32:31;8.00;76.40
68215;DHT22;55036;52.138;5.236;2023-04-30T02:34:58;7.90;76.80
68215;DHT22;55036;52.138;5.236;2023-04-30T02:37:25;7.90;76.80
68215;DHT22;55036;52.138;5.236;2023-04-30T02:39:52;7.90;77.30
68215;DHT22;55036;52.138;5.236;2023-04-30T02:42:19;8.00;77.50
68215;DHT22;55036;52.138;5.236;2023-04-30T02:44:46;8.00;77.30
68215;DHT22;55036;52.138;5.236;2023-04-30T02:47:13;8.00;77.30
68215;DHT22;55036;52.138;5.236;2023-04-30T02:49:39;8.00;77.20
68215;DHT22;55036;52.138;5.236;2023-04-30T02:52:06;8.10;77.70
68215;DHT22;55036;52.138;5.236;2023-04-30T02:54:35;8.00;78.00
68215;DHT22;55036;52.138;5.236;2023-04-30T02:57:02;8.00;78.20
68215;DHT22;55036;52.138;5.236;2023-04-30T02:59:29;7.90;78.70
68215;DHT22;55036;52.138;5.236;2023-04-30T03:01:56;7.90;80.10
68215;DHT22;55036;52.138;5.236;2023-04-30T03:04:22;7.90;79.80
68215;DHT22;55036;52.138;5.236;2023-04-30T03:06:49;8.00;79.70
68215;DHT22;55036;52.138;5.236;2023-04-30T03:09:16;8.00;79.90
68215;DHT22;55036;52.138;5.236;2023-04-30T03:11:43;8.10;80.00
68215;DHT22;55036;52.138;5.236;2023-04-30T03:14:10;8.20;79.70
68215;DHT22;55036;52.138;5.236;2023-04-30T03:16:36;8.10;80.60
68215;DHT22;55036;52.138;5.236;2023-04-30T03:19:03;8.10;79.90
68215;DHT22;55036;52.138;5.236;2023-04-30T03:21:30;8.20;80.00
68215;DHT22;55036;52.138;5.236;2023-04-30T03:23:57;8.20;79.70
68215;DHT22;55036;52.138;5.236;2023-04-30T03:26:23;8.20;79.30
68215;DHT22;55036;52.138;5.236;2023-04-30T03:28:50;8.20;79.30
68215;DHT22;55036;52.138;5.236;2023-04-30T03:31:16;8.20;79.30
68215;DHT22;55036;52.138;5.236;2023-04-30T03:33:43;8.20;79.40
68215;DHT22;55036;52.138;5.236;2023-04-30T03:36:10;8.20;79.20
68215;DHT22;55036;52.138;5.236;2023-04-30T03:38:37;8.20;79.00
68215;DHT22;55036;52.138;5.236;2023-04-30T03:41:03;8.20;79.00
68215;DHT22;55036;52.138;5.236;2023-04-30T03:43:30;8.10;79.00
68215;DHT22;55036;52.138;5.236;2023-04-30T03:45:57;8.10;79.40
68215;DHT22;55036;52.138;5.236;2023-04-30T03:48:24;8.10;79.70
68215;DHT22;55036;52.138;5.236;2023-04-30T03:50:50;8.20;80.00
68215;DHT22;55036;52.138;5.236;2023-04-30T03:53:17;8.20;80.10
68215;DHT22;55036;52.138;5.236;2023-04-30T03:55:44;8.20;79.50
68215;DHT22;55036;52.138;5.236;2023-04-30T03:58:11;8.10;79.30
68215;DHT22;55036;52.138;5.236;2023-04-30T04:00:39;8.10;79.50
68215;DHT22;55036;52.138;5.236;2023-04-30T04:03:07;8.10;79.50
68215;DHT22;55036;52.138;5.236;2023-04-30T04:05:33;8.10;79.60
68215;DHT22;55036;52.138;5.236;2023-04-30T04:08:00;8.00;79.80
68215;DHT22;55036;52.138;5.236;2023-04-30T04:10:27;8.00;79.60
68215;DHT22;55036;52.138;5.236;2023-04-30T04:12:54;8.10;79.80
68215;DHT22;55036;52.138;5.236;2023-04-30T04:15:21;8.10;79.70
68215;DHT22;55036;52.138;5.236;2023-04-30T04:17:47;8.10;79.30
68215;DHT22;55036;52.138;5.236;2023-04-30T04:20:14;8.00;79.10
68215;DHT22;55036;52.138;5.236;2023-04-30T04:22:41;8.00;79.50
68215;DHT22;55036;52.138;5.236;2023-04-30T04:25:08;8.00;79.50
68215;DHT22;55036;52.138;5.236;2023-04-30T04:27:35;8.00;79.50
68215;DHT22;55036;52.138;5.236;2023-04-30T04:30:02;8.00;79.60
68215;DHT22;55036;52.138;5.236;2023-04-30T04:32:29;8.00;79.80
68215;DHT22;55036;52.138;5.236;2023-04-30T04:34:58;8.10;80.00
68215;DHT22;55036;52.138;5.236;2023-04-30T04:37:24;8.30;80.00
68215;DHT22;55036;52.138;5.236;2023-04-30T04:39:51;8.40;80.00
68215;DHT22;55036;52.138;5.236;2023-04-30T04:42:18;8.60;80.00
68215;DHT22;55036;52.138;5.236;2023-04-30T04:44:45;8.90;79.50
68215;DHT22;55036;52.138;5.236;2023-04-30T04:47:12;9.00;78.20
68215;DHT22;55036;52.138;5.236;2023-04-30T04:49:39;8.90;77.60
68215;DHT22;55036;52.138;5.236;2023-04-30T04:52:05;8.80;77.60
68215;DHT22;55036;52.138;5.236;2023-04-30T04:54:32;8.70;77.80
68215;DHT22;55036;52.138;5.236;2023-04-30T04:56:59;8.60;77.80
68215;DHT22;55036;52.138;5.236;2023-04-30T04:59:26;8.50;77.90
68215;DHT22;55036;52.138;5.236;2023-04-30T05:01:53;8.70;79.30
68215;DHT22;55036;52.138;5.236;2023-04-30T05:04:20;9.40;80.00
68215;DHT22;55036;52.138;5.236;2023-04-30T05:06:47;10.30;79.20
68215;DHT22;55036;52.138;5.236;2023-04-30T05:09:13;11.20;78.20
68215;DHT22;55036;52.138;5.236;2023-04-30T05:11:41;11.90;75.50
68215;DHT22;55036;52.138;5.236;2023-04-30T05:14:09;12.40;73.60
68215;DHT22;55036;52.138;5.236;2023-04-30T05:16:35;12.80;72.00
68215;DHT22;55036;52.138;5.236;2023-04-30T05:19:02;13.00;70.40
68215;DHT22;55036;52.138;5.236;2023-04-30T05:21:29;13.00;70.00
68215;DHT22;55036;52.138;5.236;2023-04-30T05:23:57;13.00;70.20
68215;DHT22;55036;52.138;5.236;2023-04-30T05:26:24;13.00;69.80
68215;DHT22;55036;52.138;5.236;2023-04-30T05:28:50;13.00;69.10
68215;DHT22;55036;52.138;5.236;2023-04-30T05:31:17;13.10;69.40
68215;DHT22;55036;52.138;5.236;2023-04-30T05:33:47;13.00;68.70
68215;DHT22;55036;52.138;5.236;2023-04-30T05:36:13;13.00;68.60
68215;DHT22;55036;52.138;5.236;2023-04-30T05:38:40;13.00;69.10
68215;DHT22;55036;52.138;5.236;2023-04-30T05:41:10;13.00;68.10
68215;DHT22;55036;52.138;5.236;2023-04-30T05:43:37;12.80;67.90
68215;DHT22;55036;52.138;5.236;2023-04-30T05:46:04;12.50;69.00
68215;DHT22;55036;52.138;5.236;2023-04-30T05:48:32;12.40;70.30
68215;DHT22;55036;52.138;5.236;2023-04-30T05:50:58;12.80;70.70
68215;DHT22;55036;52.138;5.236;2023-04-30T05:53:25;13.30;70.30
68215;DHT22;55036;52.138;5.236;2023-04-30T05:55:52;13.60;68.70
68215;DHT22;55036;52.138;5.236;2023-04-30T05:58:18;13.10;67.50
68215;DHT22;55036;52.138;5.236;2023-04-30T06:00:48;13.20;68.60
68215;DHT22;55036;52.138;5.236;2023-04-30T06:03:17;13.50;69.50
68215;DHT22;55036;52.138;5.236;2023-04-30T06:05:44;13.90;69.20
68215;DHT22;55036;52.138;5.236;2023-04-30T06:08:10;14.20;68.30
68215;DHT22;55036;52.138;5.236;2023-04-30T06:10:37;14.30;66.50
68215;DHT22;55036;52.138;5.236;2023-04-30T06:13:05;14.20;66.80
68215;DHT22;55036;52.138;5.236;2023-04-30T06:15:32;14.20;68.00
68215;DHT22;55036;52.138;5.236;2023-04-30T06:17:59;14.40;67.00
68215;DHT22;55036;52.138;5.236;2023-04-30T06:20:25;14.50;66.00
68215;DHT22;55036;52.138;5.236;2023-04-30T06:22:53;14.60;66.60
68215;DHT22;55036;52.138;5.236;2023-04-30T06:25:19;14.60;63.90
68215;DHT22;55036;52.138;5.236;2023-04-30T06:27:46;14.60;65.60
68215;DHT22;55036;52.138;5.236;2023-04-30T06:30:13;14.40;63.60
68215;DHT22;55036;52.138;5.236;2023-04-30T06:32:39;14.10;65.20
68215;DHT22;55036;52.138;5.236;2023-04-30T06:35:07;14.40;65.50
68215;DHT22;55036;52.138;5.236;2023-04-30T06:37:34;14.20;65.30
68215;DHT22;55036;52.138;5.236;2023-04-30T06:40:04;14.00;64.60
68215;DHT22;55036;52.138;5.236;2023-04-30T06:42:31;14.10;64.30
68215;DHT22;55036;52.138;5.236;2023-04-30T06:45:00;14.10;64.20
68215;DHT22;55036;52.138;5.236;2023-04-30T06:47:29;14.10;64.30
68215;DHT22;55036;52.138;5.236;2023-04-30T06:50:00;13.80;64.20
68215;DHT22;55036;52.138;5.236;2023-04-30T06:52:29;13.50;65.00
68215;DHT22;55036;52.138;5.236;2023-04-30T06:54:56;13.50;65.00
68215;DHT22;55036;52.138;5.236;2023-04-30T06:57:23;13.40;65.30
68215;DHT22;55036;52.138;5.236;2023-04-30T06:59:51;13.20;65.60
68215;DHT22;55036;52.138;5.236;2023-04-30T07:02:17;13.10;66.30
68215;DHT22;55036;52.138;5.236;2023-04-30T07:04:47;13.10;66.10
68215;DHT22;55036;52.138;5.236;2023-04-30T07:07:14;13.20;65.90
68215;DHT22;55036;52.138;5.236;2023-04-30T07:09:41;13.30;66.40
68215;DHT22;55036;52.138;5.236;2023-04-30T07:12:08;13.60;65.60
68215;DHT22;55036;52.138;5.236;2023-04-30T07:14:37;13.80;64.20
68215;DHT22;55036;52.138;5.236;2023-04-30T07:17:04;13.80;65.80
68215;DHT22;55036;52.138;5.236;2023-04-30T07:19:30;13.90;65.90
68215;DHT22;55036;52.138;5.236;2023-04-30T07:21:58;14.20;66.40
68215;DHT22;55036;52.138;5.236;2023-04-30T07:24:24;14.30;64.30
68215;DHT22;55036;52.138;5.236;2023-04-30T07:26:51;14.40;63.90
68215;DHT22;55036;52.138;5.236;2023-04-30T07:29:18;14.40;63.90
68215;DHT22;55036;52.138;5.236;2023-04-30T07:31:44;14.40;63.60
68215;DHT22;55036;52.138;5.236;2023-04-30T07:34:11;14.60;64.00
68215;DHT22;55036;52.138;5.236;2023-04-30T07:36:38;14.60;62.60
68215;DHT22;55036;52.138;5.236;2023-04-30T07:39:05;14.50;62.50
68215;DHT22;55036;52.138;5.236;2023-04-30T07:41:33;14.50;63.20
68215;DHT22;55036;52.138;5.236;2023-04-30T07:44:00;14.60;63.30
68215;DHT22;55036;52.138;5.236;2023-04-30T07:46:26;14.80;61.70
68215;DHT22;55036;52.138;5.236;2023-04-30T07:48:53;15.00;62.40
68215;DHT22;55036;52.138;5.236;2023-04-30T07:51:20;15.20;58.20
68215;DHT22;55036;52.138;5.236;2023-04-30T07:53:46;15.00;61.40
68215;DHT22;55036;52.138;5.236;2023-04-30T07:56:13;15.20;61.30
68215;DHT22;55036;52.138;5.236;2023-04-30T07:58:40;15.30;60.30
68215;DHT22;55036;52.138;5.236;2023-04-30T08:01:07;15.50;60.90
68215;DHT22;55036;52.138;5.236;2023-04-30T08:03:33;15.70;60.20
68215;DHT22;55036;52.138;5.236;2023-04-30T08:06:01;15.70;58.60
68215;DHT22;55036;52.138;5.236;2023-04-30T08:08:27;15.80;58.70
68215;DHT22;55036;52.138;5.236;2023-04-30T08:10:54;15.90;59.50
68215;DHT22;55036;52.138;5.236;2023-04-30T08:13:21;15.90;56.50
68215;DHT22;55036;52.138;5.236;2023-04-30T08:15:47;15.30;57.80
68215;DHT22;55036;52.138;5.236;2023-04-30T08:18:14;15.30;58.20
68215;DHT22;55036;52.138;5.236;2023-04-30T08:20:41;15.50;58.00
68215;DHT22;55036;52.138;5.236;2023-04-30T08:23:08;15.40;57.70
68215;DHT22;55036;52.138;5.236;2023-04-30T08:25:35;15.50;57.40
68215;DHT22;55036;52.138;5.236;2023-04-30T08:28:02;15.30;57.20
68215;DHT22;55036;52.138;5.236;2023-04-30T08:30:29;15.40;57.10
68215;DHT22;55036;52.138;5.236;2023-04-30T08:32:55;15.70;56.80
68215;DHT22;55036;52.138;5.236;2023-04-30T08:35:23;15.90;57.80
68215;DHT22;55036;52.138;5.236;2023-04-30T08:37:50;16.10;57.30
68215;DHT22;55036;52.138;5.236;2023-04-30T08:40:17;16.30;55.80
68215;DHT22;55036;52.138;5.236;2023-04-30T08:42:50;16.50;54.60
68215;DHT22;55036;52.138;5.236;2023-04-30T08:45:19;16.60;56.70
68215;DHT22;55036;52.138;5.236;2023-04-30T08:47:47;16.80;56.10
68215;DHT22;55036;52.138;5.236;2023-04-30T08:50:14;16.70;51.10
68215;DHT22;55036;52.138;5.236;2023-04-30T08:52:42;16.30;54.60
68215;DHT22;55036;52.138;5.236;2023-04-30T08:55:09;16.20;54.50
68215;DHT22;55036;52.138;5.236;2023-04-30T08:57:36;16.30;54.60
68215;DHT22;55036;52.138;5.236;2023-04-30T09:00:04;16.40;55.30
68215;DHT22;55036;52.138;5.236;2023-04-30T09:02:33;16.70;55.50
68215;DHT22;55036;52.138;5.236;2023-04-30T09:05:00;16.80;54.00
68215;DHT22;55036;52.138;5.236;2023-04-30T09:07:30;16.90;54.80
68215;DHT22;55036;52.138;5.236;2023-04-30T09:09:59;17.10;54.40
68215;DHT22;55036;52.138;5.236;2023-04-30T09:12:26;17.20;53.20
68215;DHT22;55036;52.138;5.236;2023-04-30T09:15:05;17.10;51.80
68215;DHT22;55036;52.138;5.236;2023-04-30T09:17:32;17.00;51.40
68215;DHT22;55036;52.138;5.236;2023-04-30T09:20:10;16.90;52.60
68215;DHT22;55036;52.138;5.236;2023-04-30T09:22:38;16.90;51.90
68215;DHT22;55036;52.138;5.236;2023-04-30T09:25:06;17.00;53.50
68215;DHT22;55036;52.138;5.236;2023-04-30T09:27:34;17.20;54.10
68215;DHT22;55036;52.138;5.236;2023-04-30T09:30:01;17.40;53.10
68215;DHT22;55036;52.138;5.236;2023-04-30T09:32:28;17.50;51.00
68215;DHT22;55036;52.138;5.236;2023-04-30T09:34:55;17.50;51.30
68215;DHT22;55036;52.138;5.236;2023-04-30T09:37:22;17.40;51.00
68215;DHT22;55036;52.138;5.236;2023-04-30T09:40:00;17.40;49.70
68215;DHT22;55036;52.138;5.236;2023-04-30T09:42:26;17.40;50.40
68215;DHT22;55036;52.138;5.236;2023-04-30T09:44:53;17.40;50.90
68215;DHT22;55036;52.138;5.236;2023-04-30T09:47:20;17.40;51.20
68215;DHT22;55036;52.138;5.236;2023-04-30T09:49:49;17.50;51.30
68215;DHT22;55036;52.138;5.236;2023-04-30T09:52:19;17.80;51.60
68215;DHT22;55036;52.138;5.236;2023-04-30T09:54:46;17.80;50.70
68215;DHT22;55036;52.138;5.236;2023-04-30T09:57:14;17.60;50.70
68215;DHT22;55036;52.138;5.236;2023-04-30T09:59:45;17.80;50.90
68215;DHT22;55036;52.138;5.236;2023-04-30T10:02:14;17.70;50.90
68215;DHT22;55036;52.138;5.236;2023-04-30T10:04:48;17.80;50.40
68215;DHT22;55036;52.138;5.236;2023-04-30T10:07:18;17.70;50.30
68215;DHT22;55036;52.138;5.236;2023-04-30T10:09:57;17.60;50.50
68215;DHT22;55036;52.138;5.236;2023-04-30T10:12:43;17.80;50.70
68215;DHT22;55036;52.138;5.236;2023-04-30T10:15:22;17.90;51.40
68215;DHT22;55036;52.138;5.236;2023-04-30T10:18:17;18.00;49.70
68215;DHT22;55036;52.138;5.236;2023-04-30T10:20:47;18.00;49.40
68215;DHT22;55036;52.138;5.236;2023-04-30T10:23:14;18.10;51.50
68215;DHT22;55036;52.138;5.236;2023-04-30T10:25:42;18.40;50.60
68215;DHT22;55036;52.138;5.236;2023-04-30T10:28:10;18.30;48.70
68215;DHT22;55036;52.138;5.236;2023-04-30T10:30:37;18.00;50.30
68215;DHT22;55036;52.138;5.236;2023-04-30T10:33:28;18.20;49.60
68215;DHT22;55036;52.138;5.236;2023-04-30T10:36:03;18.10;48.70
68215;DHT22;55036;52.138;5.236;2023-04-30T10:38:32;17.90;49.20
68215;DHT22;55036;52.138;5.236;2023-04-30T10:41:00;18.00;50.60
68215;DHT22;55036;52.138;5.236;2023-04-30T10:43:29;18.20;50.00
68215;DHT22;55036;52.138;5.236;2023-04-30T10:45:57;18.40;48.50
68215;DHT22;55036;52.138;5.236;2023-04-30T10:48:24;18.30;49.90
68215;DHT22;55036;52.138;5.236;2023-04-30T10:50:54;18.50;50.10
68215;DHT22;55036;52.138;5.236;2023-04-30T10:53:22;18.40;49.00
68215;DHT22;55036;52.138;5.236;2023-04-30T10:58:30;18.20;48.20
68215;DHT22;55036;52.138;5.236;2023-04-30T11:01:13;18.30;48.00
68215;DHT22;55036;52.138;5.236;2023-04-30T11:09:47;18.40;48.20
68215;DHT22;55036;52.138;5.236;2023-04-30T11:12:19;18.50;47.60
68215;DHT22;55036;52.138;5.236;2023-04-30T11:14:49;18.20;48.00
68215;DHT22;55036;52.138;5.236;2023-04-30T11:17:23;18.00;48.40
68215;DHT22;55036;52.138;5.236;2023-04-30T11:19:51;18.20;48.20
68215;DHT22;55036;52.138;5.236;2023-04-30T11:22:23;18.40;48.50
68215;DHT22;55036;52.138;5.236;2023-04-30T11:27:28;19.00;48.50
68215;DHT22;55036;52.138;5.236;2023-04-30T11:29:56;19.10;46.40
68215;DHT22;55036;52.138;5.236;2023-04-30T11:32:25;19.20;47.10
68215;DHT22;55036;52.138;5.236;2023-04-30T11:34:53;18.90;46.40
68215;DHT22;55036;52.138;5.236;2023-04-30T11:37:37;19.00;46.70
68215;DHT22;55036;52.138;5.236;2023-04-30T11:40:05;19.10;47.80
68215;DHT22;55036;52.138;5.236;2023-04-30T11:42:42;19.40;47.30
68215;DHT22;55036;52.138;5.236;2023-04-30T11:45:14;19.60;44.90
68215;DHT22;55036;52.138;5.236;2023-04-30T11:47:51;19.50;45.10
68215;DHT22;55036;52.138;5.236;2023-04-30T11:50:20;19.20;45.70
68215;DHT22;55036;52.138;5.236;2023-04-30T11:52:54;19.40;46.50
68215;DHT22;55036;52.138;5.236;2023-04-30T11:55:23;19.50;45.80
68215;DHT22;55036;52.138;5.236;2023-04-30T11:57:54;19.50;44.80
68215;DHT22;55036;52.138;5.236;2023-04-30T12:00:27;19.20;45.40
68215;DHT22;55036;52.138;5.236;2023-04-30T12:02:54;19.20;45.50
68215;DHT22;55036;52.138;5.236;2023-04-30T12:05:24;19.40;45.70
68215;DHT22;55036;52.138;5.236;2023-04-30T12:07:59;19.60;44.70
68215;DHT22;55036;52.138;5.236;2023-04-30T12:10:25;19.50;44.80
68215;DHT22;55036;52.138;5.236;2023-04-30T12:12:52;19.60;45.00
68215;DHT22;55036;52.138;5.236;2023-04-30T12:15:22;19.80;45.30
68215;DHT22;55036;52.138;5.236;2023-04-30T12:17:54;20.10;44.70
68215;DHT22;55036;52.138;5.236;2023-04-30T12:20:23;20.40;44.30
68215;DHT22;55036;52.138;5.236;2023-04-30T12:22:50;20.50;44.50
68215;DHT22;55036;52.138;5.236;2023-04-30T12:25:20;20.40;43.40
68215;DHT22;55036;52.138;5.236;2023-04-30T12:27:49;20.60;43.90
68215;DHT22;55036;52.138;5.236;2023-04-30T12:30:21;20.80;42.70
68215;DHT22;55036;52.138;5.236;2023-04-30T12:32:50;20.90;43.10
68215;DHT22;55036;52.138;5.236;2023-04-30T12:35:19;20.90;41.80
68215;DHT22;55036;52.138;5.236;2023-04-30T12:37:53;20.80;41.50
68215;DHT22;55036;52.138;5.236;2023-04-30T12:40:21;20.50;42.10
68215;DHT22;55036;52.138;5.236;2023-04-30T12:42:47;20.30;41.20
68215;DHT22;55036;52.138;5.236;2023-04-30T12:45:49;19.90;41.30
68215;DHT22;55036;52.138;5.236;2023-04-30T12:48:21;19.50;42.80
68215;DHT22;55036;52.138;5.236;2023-04-30T12:53:18;20.20;43.40
68215;DHT22;55036;52.138;5.236;2023-04-30T12:58:38;20.60;42.40
68215;DHT22;55036;52.138;5.236;2023-04-30T13:01:08;20.40;41.50
68215;DHT22;55036;52.138;5.236;2023-04-30T13:03:36;20.10;41.60
68215;DHT22;55036;52.138;5.236;2023-04-30T13:06:03;19.60;41.90
68215;DHT22;55036;52.138;5.236;2023-04-30T13:08:30;19.40;42.90
68215;DHT22;55036;52.138;5.236;2023-04-30T13:11:05;19.60;43.30
68215;DHT22;55036;52.138;5.236;2023-04-30T13:13:32;19.90;42.40
68215;DHT22;55036;52.138;5.236;2023-04-30T13:15:59;19.90;43.10
68215;DHT22;55036;52.138;5.236;2023-04-30T13:18:25;19.60;42.20
68215;DHT22;55036;52.138;5.236;2023-04-30T13:20:52;19.60;42.30
68215;DHT22;55036;52.138;5.236;2023-04-30T13:23:19;19.60;42.90
68215;DHT22;55036;52.138;5.236;2023-04-30T13:25:45;19.70;40.90
68215;DHT22;55036;52.138;5.236;2023-04-30T13:28:12;19.60;40.80
68215;DHT22;55036;52.138;5.236;2023-04-30T13:30:39;19.70;41.20
68215;DHT22;55036;52.138;5.236;2023-04-30T13:33:06;19.80;41.30
68215;DHT22;55036;52.138;5.236;2023-04-30T13:35:33;19.90;41.40
68215;DHT22;55036;52.138;5.236;2023-04-30T13:38:00;20.00;41.70
68215;DHT22;55036;52.138;5.236;2023-04-30T13:40:26;20.30;41.60
68215;DHT22;55036;52.138;5.236;2023-04-30T13:42:53;20.60;40.90
68215;DHT22;55036;52.138;5.236;2023-04-30T13:45:20;20.80;40.60
68215;DHT22;55036;52.138;5.236;2023-04-30T13:47:47;20.70;40.00
68215;DHT22;55036;52.138;5.236;2023-04-30T13:50:13;20.40;41.30
68215;DHT22;55036;52.138;5.236;2023-04-30T13:52:40;20.40;41.00
68215;DHT22;55036;52.138;5.236;2023-04-30T13:55:07;20.40;39.60
68215;DHT22;55036;52.138;5.236;2023-04-30T13:57:34;20.00;39.10
68215;DHT22;55036;52.138;5.236;2023-04-30T14:00:01;19.80;40.20
68215;DHT22;55036;52.138;5.236;2023-04-30T14:02:28;19.40;40.50
68215;DHT22;55036;52.138;5.236;2023-04-30T14:04:55;19.50;40.30
68215;DHT22;55036;52.138;5.236;2023-04-30T14:07:31;19.40;41.10
68215;DHT22;55036;52.138;5.236;2023-04-30T14:09:58;19.60;41.70
68215;DHT22;55036;52.138;5.236;2023-04-30T14:12:25;19.90;41.60
68215;DHT22;55036;52.138;5.236;2023-04-30T14:14:51;19.90;41.20
68215;DHT22;55036;52.138;5.236;2023-04-30T14:17:18;20.00;39.00
68215;DHT22;55036;52.138;5.236;2023-04-30T14:19:46;20.20;38.90
68215;DHT22;55036;52.138;5.236;2023-04-30T14:22:12;20.00;37.90
68215;DHT22;55036;52.138;5.236;2023-04-30T14:24:39;19.90;39.00
68215;DHT22;55036;52.138;5.236;2023-04-30T14:27:06;20.10;39.50
68215;DHT22;55036;52.138;5.236;2023-04-30T14:29:33;20.30;39.80
68215;DHT22;55036;52.138;5.236;2023-04-30T14:31:59;20.40;39.00
68215;DHT22;55036;52.138;5.236;2023-04-30T14:34:27;20.40;39.00
68215;DHT22;55036;52.138;5.236;2023-04-30T14:36:54;20.40;39.20
68215;DHT22;55036;52.138;5.236;2023-04-30T14:39:20;20.40;39.20
68215;DHT22;55036;52.138;5.236;2023-04-30T14:41:47;20.40;38.70
68215;DHT22;55036;52.138;5.236;2023-04-30T14:44:14;20.30;39.30
68215;DHT22;55036;52.138;5.236;2023-04-30T14:46:40;20.40;39.70
68215;DHT22;55036;52.138;5.236;2023-04-30T14:49:07;20.50;39.20
68215;DHT22;55036;52.138;5.236;2023-04-30T14:51:34;20.50;38.40
68215;DHT22;55036;52.138;5.236;2023-04-30T14:54:01;20.30;38.80
68215;DHT22;55036;52.138;5.236;2023-04-30T14:56:28;20.20;39.10
68215;DHT22;55036;52.138;5.236;2023-04-30T14:58:54;20.00;39.90
68215;DHT22;55036;52.138;5.236;2023-04-30T15:01:21;19.90;40.50
68215;DHT22;55036;52.138;5.236;2023-04-30T15:03:48;19.90;40.20
68215;DHT22;55036;52.138;5.236;2023-04-30T15:06:15;19.90;40.30
68215;DHT22;55036;52.138;5.236;2023-04-30T15:08:42;19.80;40.10
68215;DHT22;55036;52.138;5.236;2023-04-30T15:11:09;19.60;40.10
68215;DHT22;55036;52.138;5.236;2023-04-30T15:13:36;19.50;39.90
68215;DHT22;55036;52.138;5.236;2023-04-30T15:16:03;19.40;40.40
68215;DHT22;55036;52.138;5.236;2023-04-30T15:18:31;19.40;40.30
68215;DHT22;55036;52.138;5.236;2023-04-30T15:20:58;19.30;41.20
68215;DHT22;55036;52.138;5.236;2023-04-30T15:23:25;19.30;41.50
68215;DHT22;55036;52.138;5.236;2023-04-30T15:25:52;19.40;41.70
68215;DHT22;55036;52.138;5.236;2023-04-30T15:28:19;19.40;41.20
68215;DHT22;55036;52.138;5.236;2023-04-30T15:30:47;19.60;42.60
68215;DHT22;55036;52.138;5.236;2023-04-30T15:33:13;19.40;41.60
68215;DHT22;55036;52.138;5.236;2023-04-30T15:35:40;19.40;41.50
68215;DHT22;55036;52.138;5.236;2023-04-30T15:38:07;19.30;42.20
68215;DHT22;55036;52.138;5.236;2023-04-30T15:40:35;19.40;42.10
68215;DHT22;55036;52.138;5.236;2023-04-30T15:45:29;19.70;41.70
68215;DHT22;55036;52.138;5.236;2023-04-30T15:47:55;19.90;41.50
68215;DHT22;55036;52.138;5.236;2023-04-30T15:50:22;19.80;41.20
68215;DHT22;55036;52.138;5.236;2023-04-30T15:52:49;19.70;41.20
68215;DHT22;55036;52.138;5.236;2023-04-30T15:55:16;19.60;41.60
68215;DHT22;55036;52.138;5.236;2023-04-30T15:57:42;19.40;41.90
68215;DHT22;55036;52.138;5.236;2023-04-30T16:00:09;19.30;41.90
68215;DHT22;55036;52.138;5.236;2023-04-30T16:02:38;19.20;42.30
68215;DHT22;55036;52.138;5.236;2023-04-30T16:05:04;19.30;41.80
68215;DHT22;55036;52.138;5.236;2023-04-30T16:07:31;19.20;42.70
68215;DHT22;55036;52.138;5.236;2023-04-30T16:09:59;19.10;42.00
68215;DHT22;55036;52.138;5.236;2023-04-30T16:12:26;19.10;42.00
68215;DHT22;55036;52.138;5.236;2023-04-30T16:14:53;19.20;41.40
68215;DHT22;55036;52.138;5.236;2023-04-30T16:17:19;19.20;41.70
68215;DHT22;55036;52.138;5.236;2023-04-30T16:19:47;19.20;41.90
68215;DHT22;55036;52.138;5.236;2023-04-30T16:22:13;19.30;41.40
68215;DHT22;55036;52.138;5.236;2023-04-30T16:24:42;19.20;41.60
68215;DHT22;55036;52.138;5.236;2023-04-30T16:27:09;19.10;42.00
68215;DHT22;55036;52.138;5.236;2023-04-30T16:29:35;19.10;42.00
68215;DHT22;55036;52.138;5.236;2023-04-30T16:32:02;19.20;42.30
68215;DHT22;55036;52.138;5.236;2023-04-30T16:34:29;19.20;42.20
68215;DHT22;55036;52.138;5.236;2023-04-30T16:36:56;19.30;42.50
68215;DHT22;55036;52.138;5.236;2023-04-30T16:39:22;19.30;42.20
68215;DHT22;55036;52.138;5.236;2023-04-30T16:41:49;19.40;42.00
68215;DHT22;55036;52.138;5.236;2023-04-30T16:44:16;19.50;41.80